createdAt,value
2022-12-16T00:02:01.262Z,7.47
2022-12-16T00:04:29.610Z,7.50
2022-12-16T00:06:57.890Z,7.00
2022-12-16T00:09:27.485Z,6.65
2022-12-16T00:11:55.800Z,6.65
2022-12-16T00:14:24.233Z,7.13
2022-12-16T00:16:52.500Z,6.22
2022-12-16T00:19:20.738Z,6.32
2022-12-16T00:21:49.019Z,6.65
2022-12-16T00:24:17.384Z,6.60
2022-12-16T00:26:46.975Z,7.30
2022-12-16T00:29:15.292Z,6.47
2022-12-16T00:31:48.075Z,7.18
2022-12-16T00:34:16.517Z,7.40
2022-12-16T00:36:45.265Z,6.40
2022-12-16T00:39:13.489Z,6.32
2022-12-16T00:41:41.775Z,5.63
2022-12-16T00:44:11.430Z,6.00
2022-12-16T00:46:39.744Z,5.80
2022-12-16T00:49:08.010Z,5.68
2022-12-16T00:51:36.460Z,6.18
2022-12-16T00:54:04.832Z,5.90
2022-12-16T00:56:35.347Z,6.07
2022-12-16T00:59:03.627Z,5.65
2022-12-16T01:01:33.325Z,5.55
2022-12-16T01:04:01.686Z,5.72
2022-12-16T01:06:29.987Z,6.13
2022-12-16T01:08:59.079Z,6.13
2022-12-16T01:11:27.365Z,6.22
2022-12-16T01:13:55.607Z,5.65
2022-12-16T01:16:24.187Z,5.28
2022-12-16T01:18:55.115Z,5.63
2022-12-16T01:21:23.742Z,5.28
2022-12-16T01:23:51.958Z,6.10
2022-12-16T01:26:23.544Z,6.07
2022-12-16T01:28:52.056Z,5.30
2022-12-16T01:31:20.947Z,5.40
2022-12-16T01:33:49.493Z,5.93
2022-12-16T01:36:19.956Z,6.18
2022-12-16T01:38:48.465Z,6.60
2022-12-16T01:41:17.257Z,6.30
2022-12-16T01:43:46.200Z,5.75
2022-12-16T01:46:18.072Z,6.22
2022-12-16T01:48:48.788Z,6.05
2022-12-16T01:51:23.027Z,6.15
2022-12-16T01:53:52.238Z,5.45
2022-12-16T01:56:26.187Z,5.68
2022-12-16T01:58:54.816Z,6.75
2022-12-16T02:01:23.767Z,5.60
2022-12-16T02:03:54.260Z,6.40
2022-12-16T02:06:23.900Z,6.43
2022-12-16T02:08:55.579Z,5.80
2022-12-16T02:11:29.744Z,6.55
2022-12-16T02:14:05.722Z,6.30
2022-12-16T02:16:35.776Z,6.05
2022-12-16T02:19:11.744Z,5.25
2022-12-16T02:21:51.247Z,6.00
2022-12-16T02:24:32.297Z,5.72
2022-12-16T02:27:17.616Z,6.07
2022-12-16T02:30:01.219Z,5.85
2022-12-16T02:32:33.113Z,6.07
2022-12-16T02:35:05.789Z,6.30
2022-12-16T02:37:39.421Z,5.05
2022-12-16T02:40:09.675Z,5.78
2022-12-16T02:42:40.967Z,5.75
2022-12-16T02:45:12.680Z,5.72
2022-12-16T02:47:42.407Z,5.88
2022-12-16T02:50:17.836Z,6.43
2022-12-16T02:52:46.343Z,6.15
2022-12-16T02:55:15.030Z,5.68
2022-12-16T02:57:49.817Z,4.95
2022-12-16T03:00:20.265Z,6.32
2022-12-16T03:02:53.831Z,6.00
2022-12-16T03:05:24.120Z,5.38
2022-12-16T03:07:55.092Z,5.75
2022-12-16T03:10:27.159Z,6.03
2022-12-16T03:12:57.043Z,5.60
2022-12-16T03:15:27.456Z,5.00
2022-12-16T03:17:57.447Z,5.22
2022-12-16T03:20:28.380Z,5.25
2022-12-16T03:22:59.545Z,5.35
2022-12-16T03:25:28.600Z,5.32
2022-12-16T03:27:59.086Z,5.47
2022-12-16T03:30:28.531Z,5.03
2022-12-16T03:33:02.186Z,7.10
2022-12-16T03:35:33.143Z,5.65
2022-12-16T03:38:02.683Z,5.43
2022-12-16T03:40:31.518Z,5.63
2022-12-16T03:43:01.288Z,4.35
2022-12-16T03:45:31.101Z,5.97
2022-12-16T03:48:01.820Z,5.05
2022-12-16T03:50:31.348Z,4.47
2022-12-16T03:52:59.607Z,5.35
2022-12-16T03:55:28.116Z,5.57
2022-12-16T03:57:57.091Z,4.57
2022-12-16T04:00:25.579Z,3.85
2022-12-16T04:02:54.659Z,4.68
2022-12-16T04:05:24.567Z,4.43
2022-12-16T04:07:55.252Z,5.60
2022-12-16T04:10:39.664Z,4.03
2022-12-16T04:13:34.307Z,4.75
2022-12-16T04:16:21.177Z,4.70
2022-12-16T04:19:07.618Z,3.95
2022-12-16T04:21:55.947Z,4.35
2022-12-16T04:24:26.771Z,4.50
2022-12-16T04:27:15.605Z,4.68
2022-12-16T04:29:58.259Z,4.60
2022-12-16T04:32:27.019Z,4.40
2022-12-16T04:34:54.324Z,5.00
2022-12-16T04:37:41.728Z,4.00
2022-12-16T04:40:28.482Z,4.72
2022-12-16T04:43:13.544Z,4.38
2022-12-16T04:46:08.324Z,3.80
2022-12-16T04:48:54.583Z,4.32
2022-12-16T04:51:36.773Z,4.75
2022-12-16T04:54:24.651Z,4.53
2022-12-16T04:57:10.904Z,5.30
2022-12-16T04:59:53.218Z,4.38
2022-12-16T05:02:39.642Z,4.97
2022-12-16T05:05:26.391Z,4.65
2022-12-16T05:08:12.302Z,4.35
2022-12-16T05:10:59.640Z,4.95
2022-12-16T05:13:44.635Z,4.20
2022-12-16T05:16:30.857Z,5.22
2022-12-16T05:19:16.613Z,4.25
2022-12-16T05:22:02.545Z,4.50
2022-12-16T05:24:52.739Z,4.22
2022-12-16T05:27:40.465Z,4.05
2022-12-16T05:30:33.357Z,4.03
2022-12-16T05:33:19.995Z,3.90
2022-12-16T05:36:05.971Z,4.25
2022-12-16T05:38:51.783Z,4.68
2022-12-16T05:41:40.298Z,4.50
2022-12-16T05:44:27.685Z,4.30
2022-12-16T05:47:13.670Z,4.05
2022-12-16T05:49:59.553Z,5.35
2022-12-16T05:52:45.413Z,4.90
2022-12-16T05:55:34.055Z,4.63
2022-12-16T05:58:20.295Z,4.53
2022-12-16T06:01:07.524Z,4.82
2022-12-16T06:03:53.466Z,4.13
2022-12-16T06:06:40.268Z,4.57
2022-12-16T06:09:26.229Z,5.07
2022-12-16T06:12:12.201Z,4.80
2022-12-16T06:14:58.394Z,4.15
2022-12-16T06:17:45.982Z,4.93
2022-12-16T06:20:32.024Z,5.05
2022-12-16T06:23:22.519Z,4.18
2022-12-16T06:26:11.504Z,4.93
2022-12-16T06:28:57.494Z,4.53
2022-12-16T06:31:43.457Z,4.82
2022-12-16T06:34:30.707Z,4.22
2022-12-16T06:37:16.790Z,5.05
2022-12-16T06:40:02.846Z,4.38
2022-12-16T06:42:48.850Z,4.90
2022-12-16T06:45:35.292Z,4.57
2022-12-16T06:48:21.223Z,4.72
2022-12-16T06:51:13.650Z,4.90
2022-12-16T06:53:59.775Z,5.43
2022-12-16T06:56:45.700Z,5.15
2022-12-16T06:59:31.511Z,5.13
2022-12-16T07:02:17.824Z,5.38
2022-12-16T07:05:04.162Z,5.45
2022-12-16T07:08:02.946Z,5.45
2022-12-16T07:10:49.183Z,4.57
2022-12-16T07:13:36.645Z,4.65
2022-12-16T07:16:24.010Z,4.95
2022-12-16T07:19:26.252Z,4.95
2022-12-16T07:22:15.371Z,5.22
2022-12-16T07:25:02.956Z,4.68
2022-12-16T07:27:50.770Z,4.75
2022-12-16T07:30:39.198Z,4.88
2022-12-16T07:33:27.035Z,5.43
2022-12-16T07:36:17.652Z,5.45
2022-12-16T07:39:13.700Z,4.60
2022-12-16T07:42:02.277Z,5.03
2022-12-16T07:44:48.312Z,5.28
2022-12-16T07:47:36.800Z,5.25
2022-12-16T07:50:26.491Z,5.70
2022-12-16T07:53:16.084Z,5.25
2022-12-16T07:56:18.919Z,5.50
2022-12-16T07:59:07.810Z,4.90
2022-12-16T08:01:54.365Z,5.15
2022-12-16T08:04:41.773Z,4.75
2022-12-16T08:07:28.102Z,5.32
2022-12-16T08:10:16.779Z,4.75
2022-12-16T08:13:03.620Z,4.78
2022-12-16T08:15:53.709Z,5.18
2022-12-16T08:18:39.923Z,5.10
2022-12-16T08:21:30.302Z,5.00
2022-12-16T08:24:23.875Z,4.93
2022-12-16T08:27:14.552Z,6.22
2022-12-16T08:30:03.426Z,5.10
2022-12-16T08:33:00.625Z,4.82
2022-12-16T08:36:00.728Z,5.70
2022-12-16T08:38:46.612Z,5.72
2022-12-16T08:41:34.799Z,5.22
2022-12-16T08:44:21.049Z,5.68
2022-12-16T08:47:09.135Z,5.35
2022-12-16T08:49:59.746Z,5.72
2022-12-16T08:52:49.508Z,5.72
2022-12-16T08:55:35.597Z,5.65
2022-12-16T08:58:22.247Z,5.15
2022-12-16T09:01:08.818Z,5.22
2022-12-16T09:04:13.563Z,4.85
2022-12-16T09:07:06.368Z,5.03
2022-12-16T09:09:57.441Z,4.47
2022-12-16T09:12:48.285Z,5.35
2022-12-16T09:15:34.564Z,5.80
2022-12-16T09:18:21.018Z,5.05
2022-12-16T09:21:08.218Z,4.53
2022-12-16T09:23:57.787Z,5.13
2022-12-16T09:26:47.318Z,5.32
2022-12-16T09:29:33.779Z,4.88
2022-12-16T09:32:19.772Z,4.95
2022-12-16T09:35:13.292Z,6.20
2022-12-16T09:38:04.560Z,5.30
2022-12-16T09:40:54.587Z,6.63
2022-12-16T09:43:49.285Z,6.72
2022-12-16T09:46:40.248Z,7.05
2022-12-16T09:49:31.403Z,5.40
2022-12-16T09:52:19.842Z,6.57
2022-12-16T09:55:06.456Z,7.45
2022-12-16T09:57:54.897Z,6.75
2022-12-16T10:00:45.270Z,7.88
2022-12-16T10:03:36.989Z,6.00
2022-12-16T10:06:28.529Z,4.78
2022-12-16T10:09:28.367Z,5.82
2022-12-16T10:16:26.212Z,5.10
2022-12-16T10:19:17.542Z,4.97
2022-12-16T10:22:07.007Z,4.88
2022-12-16T10:24:57.088Z,4.78
2022-12-16T10:27:46.035Z,4.93
2022-12-16T10:30:33.446Z,5.70
2022-12-16T10:33:21.295Z,5.95
2022-12-16T10:36:08.668Z,5.90
2022-12-16T10:38:56.423Z,6.05
2022-12-16T10:41:44.836Z,4.93
2022-12-16T10:44:35.825Z,5.25
2022-12-16T10:47:21.662Z,5.82
2022-12-16T10:50:10.587Z,5.55
2022-12-16T10:53:02.931Z,6.85
2022-12-16T10:56:06.752Z,6.03
2022-12-16T10:58:56.753Z,5.38
2022-12-16T11:01:44.317Z,6.35
2022-12-16T11:04:48.934Z,5.35
2022-12-16T11:07:55.962Z,4.75
2022-12-16T11:10:56.690Z,5.30
2022-12-16T11:13:46.575Z,9.50
2022-12-16T11:16:34.538Z,6.07
2022-12-16T11:19:20.724Z,7.85
2022-12-16T11:22:07.140Z,6.78
2022-12-16T11:24:53.444Z,6.88
2022-12-16T11:27:45.097Z,5.80
2022-12-16T11:30:39.395Z,5.07
2022-12-16T11:33:30.363Z,5.50
2022-12-16T11:36:20.893Z,5.97
2022-12-16T11:39:08.011Z,5.35
2022-12-16T11:41:55.483Z,6.20
2022-12-16T11:44:46.193Z,5.93
2022-12-16T11:47:35.041Z,5.47
2022-12-16T11:50:21.211Z,5.57
2022-12-16T11:53:11.064Z,6.65
2022-12-16T11:56:12.513Z,6.90
2022-12-16T11:59:03.717Z,6.40
2022-12-16T12:01:52.520Z,6.10
2022-12-16T12:04:55.938Z,6.65
2022-12-16T12:07:47.092Z,6.63
2022-12-16T12:10:40.737Z,6.78
2022-12-16T12:13:31.937Z,6.43
2022-12-16T12:16:37.031Z,6.55
2022-12-16T12:19:24.292Z,7.35
2022-12-16T12:22:12.829Z,5.45
2022-12-16T12:25:00.522Z,5.57
2022-12-16T12:27:49.960Z,5.30
2022-12-16T12:30:39.019Z,5.55
2022-12-16T12:33:34.428Z,5.43
2022-12-16T12:36:26.736Z,5.63
2022-12-16T12:39:20.763Z,5.65
2022-12-16T12:42:16.541Z,6.65
2022-12-16T12:45:07.984Z,6.90
2022-12-16T12:47:57.212Z,7.68
2022-12-16T12:50:48.041Z,7.22
2022-12-16T12:53:41.588Z,6.78
2022-12-16T12:56:30.600Z,6.07
2022-12-16T12:59:28.074Z,8.73
2022-12-16T13:02:15.078Z,6.20
2022-12-16T13:05:02.487Z,6.93
2022-12-16T13:07:51.050Z,7.63
2022-12-16T13:10:52.584Z,6.93
2022-12-16T13:13:49.327Z,7.65
2022-12-16T13:16:54.182Z,7.15
2022-12-16T13:19:54.738Z,6.57
2022-12-16T13:22:49.092Z,7.32
2022-12-16T13:25:56.777Z,5.55
2022-12-16T13:28:44.757Z,6.68
2022-12-16T13:31:31.315Z,6.47
2022-12-16T13:34:20.592Z,7.35
2022-12-16T13:37:12.506Z,5.70
2022-12-16T13:40:00.258Z,6.13
2022-12-16T13:43:10.805Z,6.20
2022-12-16T13:45:58.593Z,5.70
2022-12-16T13:48:46.546Z,6.03
2022-12-16T13:51:47.348Z,5.88
2022-12-16T13:54:46.300Z,6.03
2022-12-16T13:57:35.776Z,5.63
2022-12-16T14:00:24.899Z,5.40
2022-12-16T14:03:12.388Z,5.40
2022-12-16T14:06:02.225Z,5.82
2022-12-16T14:09:02.606Z,6.25
2022-12-16T14:12:02.450Z,5.95
2022-12-16T14:14:51.371Z,5.78
2022-12-16T14:17:36.739Z,6.93
2022-12-16T14:20:29.509Z,5.95
2022-12-16T14:23:46.816Z,5.60
2022-12-16T14:26:31.270Z,5.70
2022-12-16T14:29:17.467Z,6.13
2022-12-16T14:32:03.904Z,5.93
2022-12-16T14:34:52.190Z,5.18
2022-12-16T14:37:39.153Z,5.35
2022-12-16T14:40:43.023Z,5.45
2022-12-16T14:43:32.354Z,5.35
2022-12-16T14:46:18.551Z,5.40
2022-12-16T14:49:05.571Z,5.40
2022-12-16T14:51:53.821Z,5.68
2022-12-16T14:54:42.226Z,6.50
2022-12-16T14:57:30.177Z,5.25
2022-12-16T15:00:19.469Z,5.72
2022-12-16T15:03:15.010Z,9.60
2022-12-16T15:06:02.502Z,8.57
2022-12-16T15:08:52.119Z,7.85
2022-12-16T15:11:39.153Z,7.05
2022-12-16T15:14:26.102Z,7.88
2022-12-16T15:17:13.020Z,6.60
2022-12-16T15:20:03.564Z,6.75
2022-12-16T15:22:50.285Z,6.20
2022-12-16T15:25:41.783Z,6.82
2022-12-16T15:28:42.267Z,6.13
2022-12-16T15:31:43.160Z,6.75
2022-12-16T15:34:43.108Z,6.43
2022-12-16T15:37:34.789Z,5.57
2022-12-16T15:40:21.116Z,5.72
2022-12-16T15:43:10.677Z,5.88
2022-12-16T15:45:56.762Z,6.90
2022-12-16T15:48:43.773Z,6.32
2022-12-16T15:51:39.885Z,7.07
2022-12-16T15:54:33.399Z,6.45
2022-12-16T15:57:19.752Z,6.32
2022-12-16T16:00:14.936Z,7.88
2022-12-16T16:03:38.601Z,6.10
2022-12-16T16:06:33.583Z,5.88
2022-12-16T16:09:20.088Z,7.13
2022-12-16T16:12:05.810Z,6.13
2022-12-16T16:14:51.673Z,5.88
2022-12-16T16:17:41.844Z,6.90
2022-12-16T16:20:32.873Z,7.35
2022-12-16T16:23:19.276Z,7.57
2022-12-16T16:26:07.184Z,6.82
2022-12-16T16:28:53.672Z,6.45
2022-12-16T16:31:40.490Z,6.93
2022-12-16T16:34:31.220Z,6.38
2022-12-16T16:37:17.830Z,7.13
2022-12-16T16:40:03.839Z,6.05
2022-12-16T16:42:50.174Z,8.13
2022-12-16T16:45:36.514Z,8.13
2022-12-16T16:48:24.862Z,11.43
2022-12-16T16:51:14.468Z,7.93
2022-12-16T16:54:00.356Z,9.40
2022-12-16T16:56:46.982Z,12.15
2022-12-16T16:59:33.650Z,8.05
2022-12-16T17:02:19.627Z,8.18
2022-12-16T17:05:05.687Z,7.97
2022-12-16T17:07:54.095Z,6.75
2022-12-16T17:10:40.046Z,8.50
2022-12-16T17:13:27.918Z,6.60
2022-12-16T17:16:14.176Z,6.88
2022-12-16T17:19:00.179Z,6.15
2022-12-16T17:21:46.172Z,6.22
2022-12-16T17:24:33.495Z,6.53
2022-12-16T17:27:26.841Z,6.40
2022-12-16T17:30:33.273Z,6.25
2022-12-16T17:33:20.708Z,6.78
2022-12-16T17:36:09.838Z,6.72
2022-12-16T17:38:59.533Z,7.40
2022-12-16T17:41:49.959Z,7.10
2022-12-16T17:44:51.220Z,6.20
2022-12-16T17:51:46.627Z,6.15
2022-12-16T17:54:32.555Z,6.78
2022-12-16T17:57:20.017Z,6.55
2022-12-16T18:00:06.040Z,6.45
2022-12-16T18:02:58.260Z,6.53
2022-12-16T18:05:46.101Z,7.10
2022-12-16T18:08:32.222Z,7.22
2022-12-16T18:11:20.146Z,6.38
2022-12-16T18:14:07.772Z,7.32
2022-12-16T18:16:53.837Z,8.20
2022-12-16T18:19:39.693Z,7.60
2022-12-16T18:22:25.603Z,8.25
2022-12-16T18:25:11.451Z,8.02
2022-12-16T18:27:57.213Z,8.13
2022-12-16T18:30:44.451Z,7.80
2022-12-16T18:33:30.427Z,7.93
2022-12-16T18:36:16.460Z,7.55
2022-12-16T18:39:02.475Z,6.85
2022-12-16T18:41:59.754Z,6.75
2022-12-16T18:44:46.205Z,6.78
2022-12-16T18:47:33.561Z,7.95
2022-12-16T18:50:25.290Z,7.78
2022-12-16T18:53:13.713Z,14.80
2022-12-16T18:55:59.658Z,7.88
2022-12-16T18:58:52.826Z,7.10
2022-12-16T19:01:39.201Z,7.32
2022-12-16T19:04:25.625Z,7.07
2022-12-16T19:07:11.535Z,8.05
2022-12-16T19:09:57.517Z,10.40
2022-12-16T19:12:43.437Z,8.38
2022-12-16T19:15:29.807Z,7.72
2022-12-16T19:18:15.563Z,7.65
2022-12-16T19:21:03.301Z,7.50
2022-12-16T19:23:49.347Z,6.55
2022-12-16T19:26:34.493Z,7.88
2022-12-16T19:29:25.129Z,7.72
2022-12-16T19:32:11.201Z,11.82
2022-12-16T19:34:58.101Z,10.75
2022-12-16T19:37:46.450Z,10.98
2022-12-16T19:40:34.281Z,11.45
2022-12-16T19:43:21.977Z,10.32
2022-12-16T19:46:10.899Z,10.32
2022-12-16T19:48:57.080Z,10.68
2022-12-16T19:51:43.664Z,7.57
2022-12-16T19:54:30.814Z,8.50
2022-12-16T19:57:16.752Z,8.77
2022-12-16T20:00:02.553Z,8.60
2022-12-16T20:02:58.005Z,7.75
2022-12-16T20:05:44.533Z,9.23
2022-12-16T20:08:32.330Z,14.23
2022-12-16T20:11:24.582Z,15.60
2022-12-16T20:14:14.840Z,14.80
2022-12-16T20:17:01.983Z,10.25
2022-12-16T20:19:48.040Z,10.63
2022-12-16T20:22:35.348Z,8.45
2022-12-16T20:25:21.862Z,9.43
2022-12-16T20:28:12.212Z,10.02
2022-12-16T20:30:59.176Z,9.18
2022-12-16T20:33:46.423Z,7.88
2022-12-16T20:36:35.301Z,8.15
2022-12-16T20:39:21.808Z,8.07
2022-12-16T20:42:09.479Z,7.07
2022-12-16T20:44:57.024Z,12.20
2022-12-16T20:47:43.351Z,7.95
2022-12-16T20:50:29.270Z,10.73
2022-12-16T20:53:15.299Z,6.80
2022-12-16T20:56:01.470Z,7.07
2022-12-16T20:58:47.934Z,6.93
2022-12-16T21:01:36.292Z,7.35
2022-12-16T21:04:23.054Z,7.60
2022-12-16T21:07:10.795Z,7.72
2022-12-16T21:09:59.221Z,8.52
2022-12-16T21:12:48.712Z,7.25
2022-12-16T21:15:53.090Z,8.38
2022-12-16T21:18:46.338Z,9.30
2022-12-16T21:21:33.945Z,7.38
2022-12-16T21:24:22.817Z,8.05
2022-12-16T21:27:13.215Z,11.02
2022-12-16T21:30:00.834Z,11.55
2022-12-16T21:32:47.721Z,11.20
2022-12-16T21:35:39.169Z,8.32
2022-12-16T21:38:27.671Z,6.88
2022-12-16T21:41:16.458Z,7.18
2022-12-16T21:44:04.105Z,8.73
2022-12-16T21:46:49.987Z,8.10
2022-12-16T21:49:38.959Z,8.65
2022-12-16T21:52:28.928Z,9.10
2022-12-16T21:55:17.804Z,8.07
2022-12-16T21:58:04.768Z,9.90
2022-12-16T22:00:53.583Z,7.43
2022-12-16T22:03:52.873Z,7.38
2022-12-16T22:06:44.303Z,8.25
2022-12-16T22:09:35.997Z,8.07
2022-12-16T22:12:23.642Z,7.07
2022-12-16T22:15:10.528Z,7.45
2022-12-16T22:18:01.874Z,6.95
2022-12-16T22:20:50.364Z,8.30
2022-12-16T22:23:37.562Z,8.48
2022-12-16T22:26:25.376Z,8.20
2022-12-16T22:29:14.089Z,6.78
2022-12-16T22:32:01.038Z,7.22
2022-12-16T22:34:48.098Z,7.18
2022-12-16T22:37:35.863Z,7.78
2022-12-16T22:40:23.757Z,7.38
2022-12-16T22:43:13.356Z,6.72
2022-12-16T22:45:59.522Z,7.45
2022-12-16T22:48:47.511Z,7.00
2022-12-16T22:51:34.861Z,6.85
2022-12-16T22:54:21.977Z,7.38
2022-12-16T22:57:10.377Z,7.30
2022-12-16T22:59:57.769Z,8.07
2022-12-16T23:02:43.516Z,8.10
2022-12-16T23:05:29.472Z,7.82
2022-12-16T23:08:15.480Z,7.53
2022-12-16T23:11:01.392Z,7.05
2022-12-16T23:13:47.274Z,7.45
2022-12-16T23:16:34.479Z,6.82
2022-12-16T23:19:20.550Z,7.30
2022-12-16T23:22:06.979Z,7.97
2022-12-16T23:24:52.764Z,7.15
2022-12-16T23:27:39.722Z,7.57
2022-12-16T23:30:26.532Z,8.02
2022-12-16T23:33:17.352Z,8.23
2022-12-16T23:36:03.423Z,7.72
2022-12-16T23:38:57.662Z,6.88
2022-12-16T23:41:42.999Z,7.10
2022-12-16T23:44:37.746Z,8.25
2022-12-16T23:47:24.174Z,7.63
2022-12-16T23:50:15.838Z,8.27
2022-12-16T23:53:02.035Z,7.50
2022-12-16T23:55:48.088Z,8.02
2022-12-16T23:58:34.010Z,7.82
